sensor_id;sensor_type;location;lat;lon;timestamp;P1;durP1;ratioP1;P2;durP2;ratioP2
18338;SDS011;9295;44.484;11.240;2023-05-10T00:02:09;16.63;;;9.93;;
18338;SDS011;9295;44.484;11.240;2023-05-10T00:04:37;16.50;;;10.90;;
18338;SDS011;9295;44.484;11.240;2023-05-10T00:07:05;14.80;;;10.57;;
18338;SDS011;9295;44.484;11.240;2023-05-10T00:09:34;20.63;;;9.90;;
18338;SDS011;9295;44.484;11.240;2023-05-10T00:12:02;14.93;;;10.67;;
18338;SDS011;9295;44.484;11.240;2023-05-10T00:14:31;19.60;;;9.93;;
18338;SDS011;9295;44.484;11.240;2023-05-10T00:16:59;19.70;;;11.40;;
18338;SDS011;9295;44.484;11.240;2023-05-10T00:19:29;21.13;;;11.03;;
18338;SDS011;9295;44.484;11.240;2023-05-10T00:21:58;14.60;;;10.67;;
18338;SDS011;9295;44.484;11.240;2023-05-10T00:24:26;14.50;;;10.17;;
18338;SDS011;9295;44.484;11.240;2023-05-10T00:26:54;17.07;;;10.90;;
18338;SDS011;9295;44.484;11.240;2023-05-10T00:29:23;16.23;;;11.50;;
18338;SDS011;9295;44.484;11.240;2023-05-10T00:31:52;13.00;;;9.73;;
18338;SDS011;9295;44.484;11.240;2023-05-10T00:34:20;15.30;;;10.60;;
18338;SDS011;9295;44.484;11.240;2023-05-10T00:36:51;16.50;;;9.63;;
18338;SDS011;9295;44.484;11.240;2023-05-10T00:39:19;19.00;;;11.00;;
18338;SDS011;9295;44.484;11.240;2023-05-10T00:41:48;17.50;;;10.63;;
18338;SDS011;9295;44.484;11.240;2023-05-10T00:44:17;15.93;;;10.07;;
18338;SDS011;9295;44.484;11.240;2023-05-10T00:46:46;14.30;;;10.20;;
18338;SDS011;9295;44.484;11.240;2023-05-10T00:49:15;23.33;;;11.63;;
18338;SDS011;9295;44.484;11.240;2023-05-10T00:51:44;19.20;;;10.77;;
18338;SDS011;9295;44.484;11.240;2023-05-10T00:54:14;18.47;;;11.00;;
18338;SDS011;9295;44.484;11.240;2023-05-10T00:56:43;26.40;;;12.33;;
18338;SDS011;9295;44.484;11.240;2023-05-10T00:59:15;26.43;;;13.40;;
18338;SDS011;9295;44.484;11.240;2023-05-10T01:01:44;23.17;;;12.97;;
18338;SDS011;9295;44.484;11.240;2023-05-10T01:04:13;18.23;;;13.60;;
18338;SDS011;9295;44.484;11.240;2023-05-10T01:06:42;23.30;;;11.93;;
18338;SDS011;9295;44.484;11.240;2023-05-10T01:09:10;19.43;;;12.90;;
18338;SDS011;9295;44.484;11.240;2023-05-10T01:11:40;22.40;;;13.23;;
18338;SDS011;9295;44.484;11.240;2023-05-10T01:14:09;15.50;;;12.43;;
18338;SDS011;9295;44.484;11.240;2023-05-10T01:16:40;22.77;;;12.87;;
18338;SDS011;9295;44.484;11.240;2023-05-10T01:19:11;23.30;;;12.87;;
18338;SDS011;9295;44.484;11.240;2023-05-10T01:21:47;19.57;;;14.40;;
18338;SDS011;9295;44.484;11.240;2023-05-10T01:24:36;26.30;;;13.50;;
18338;SDS011;9295;44.484;11.240;2023-05-10T01:27:29;28.60;;;15.80;;
18338;SDS011;9295;44.484;11.240;2023-05-10T01:30:27;19.50;;;15.20;;
18338;SDS011;9295;44.484;11.240;2023-05-10T01:33:19;21.20;;;12.90;;
18338;SDS011;9295;44.484;11.240;2023-05-10T01:35:52;21.20;;;11.80;;
18338;SDS011;9295;44.484;11.240;2023-05-10T01:38:28;17.20;;;11.87;;
18338;SDS011;9295;44.484;11.240;2023-05-10T01:41:03;16.80;;;12.47;;
18338;SDS011;9295;44.484;11.240;2023-05-10T01:43:42;17.33;;;11.90;;
18338;SDS011;9295;44.484;11.240;2023-05-10T01:46:20;20.80;;;14.00;;
18338;SDS011;9295;44.484;11.240;2023-05-10T01:48:57;19.13;;;11.90;;
18338;SDS011;9295;44.484;11.240;2023-05-10T01:51:29;23.53;;;13.67;;
18338;SDS011;9295;44.484;11.240;2023-05-10T01:54:04;14.17;;;10.20;;
18338;SDS011;9295;44.484;11.240;2023-05-10T01:56:34;17.83;;;13.70;;
18338;SDS011;9295;44.484;11.240;2023-05-10T01:59:06;15.67;;;12.00;;
18338;SDS011;9295;44.484;11.240;2023-05-10T02:01:40;12.40;;;9.80;;
18338;SDS011;9295;44.484;11.240;2023-05-10T02:04:12;17.90;;;11.80;;
18338;SDS011;9295;44.484;11.240;2023-05-10T02:06:45;13.60;;;11.40;;
18338;SDS011;9295;44.484;11.240;2023-05-10T02:09:15;17.07;;;10.10;;
18338;SDS011;9295;44.484;11.240;2023-05-10T02:11:45;15.30;;;11.00;;
18338;SDS011;9295;44.484;11.240;2023-05-10T02:14:16;14.30;;;10.60;;
18338;SDS011;9295;44.484;11.240;2023-05-10T02:16:46;17.67;;;10.80;;
18338;SDS011;9295;44.484;11.240;2023-05-10T02:19:19;14.27;;;9.67;;
18338;SDS011;9295;44.484;11.240;2023-05-10T02:21:49;17.93;;;10.90;;
18338;SDS011;9295;44.484;11.240;2023-05-10T02:24:19;13.03;;;9.97;;
18338;SDS011;9295;44.484;11.240;2023-05-10T02:26:49;16.50;;;11.37;;
18338;SDS011;9295;44.484;11.240;2023-05-10T02:29:18;11.90;;;10.13;;
18338;SDS011;9295;44.484;11.240;2023-05-10T02:31:50;15.97;;;9.50;;
18338;SDS011;9295;44.484;11.240;2023-05-10T02:34:22;18.60;;;10.00;;
18338;SDS011;9295;44.484;11.240;2023-05-10T02:36:53;12.60;;;10.20;;
18338;SDS011;9295;44.484;11.240;2023-05-10T02:39:22;19.97;;;11.13;;
18338;SDS011;9295;44.484;11.240;2023-05-10T02:41:52;15.37;;;10.00;;
18338;SDS011;9295;44.484;11.240;2023-05-10T02:44:22;13.53;;;11.23;;
18338;SDS011;9295;44.484;11.240;2023-05-10T02:46:51;15.43;;;11.80;;
18338;SDS011;9295;44.484;11.240;2023-05-10T02:49:23;16.27;;;11.63;;
18338;SDS011;9295;44.484;11.240;2023-05-10T02:51:55;16.00;;;11.50;;
18338;SDS011;9295;44.484;11.240;2023-05-10T02:54:29;12.50;;;11.00;;
18338;SDS011;9295;44.484;11.240;2023-05-10T02:57:00;14.70;;;11.87;;
18338;SDS011;9295;44.484;11.240;2023-05-10T02:59:32;13.70;;;10.93;;
18338;SDS011;9295;44.484;11.240;2023-05-10T03:02:01;13.67;;;10.50;;
18338;SDS011;9295;44.484;11.240;2023-05-10T03:04:31;16.53;;;10.17;;
18338;SDS011;9295;44.484;11.240;2023-05-10T03:06:59;13.23;;;9.57;;
18338;SDS011;9295;44.484;11.240;2023-05-10T03:09:28;13.87;;;10.43;;
18338;SDS011;9295;44.484;11.240;2023-05-10T03:12:02;14.50;;;10.27;;
18338;SDS011;9295;44.484;11.240;2023-05-10T03:14:44;15.03;;;9.00;;
18338;SDS011;9295;44.484;11.240;2023-05-10T03:17:22;19.20;;;10.87;;
18338;SDS011;9295;44.484;11.240;2023-05-10T03:19:55;13.90;;;10.27;;
18338;SDS011;9295;44.484;11.240;2023-05-10T03:22:26;13.93;;;10.20;;
18338;SDS011;9295;44.484;11.240;2023-05-10T03:24:59;13.50;;;9.60;;
18338;SDS011;9295;44.484;11.240;2023-05-10T03:27:32;11.07;;;9.63;;
18338;SDS011;9295;44.484;11.240;2023-05-10T03:30:03;11.87;;;9.70;;
18338;SDS011;9295;44.484;11.240;2023-05-10T03:32:35;14.80;;;10.37;;
18338;SDS011;9295;44.484;11.240;2023-05-10T03:35:07;14.00;;;8.73;;
18338;SDS011;9295;44.484;11.240;2023-05-10T03:37:36;14.20;;;8.67;;
18338;SDS011;9295;44.484;11.240;2023-05-10T03:40:05;15.17;;;9.17;;
18338;SDS011;9295;44.484;11.240;2023-05-10T03:42:37;13.17;;;9.90;;
18338;SDS011;9295;44.484;11.240;2023-05-10T03:45:06;13.77;;;10.70;;
18338;SDS011;9295;44.484;11.240;2023-05-10T03:47:35;15.70;;;10.73;;
18338;SDS011;9295;44.484;11.240;2023-05-10T03:50:04;14.90;;;10.23;;
18338;SDS011;9295;44.484;11.240;2023-05-10T03:52:35;15.03;;;11.30;;
18338;SDS011;9295;44.484;11.240;2023-05-10T03:55:05;11.80;;;10.00;;
18338;SDS011;9295;44.484;11.240;2023-05-10T03:57:34;13.83;;;8.90;;
18338;SDS011;9295;44.484;11.240;2023-05-10T04:00:03;11.00;;;9.00;;
18338;SDS011;9295;44.484;11.240;2023-05-10T04:02:39;12.00;;;9.50;;
18338;SDS011;9295;44.484;11.240;2023-05-10T04:05:16;15.23;;;9.17;;
18338;SDS011;9295;44.484;11.240;2023-05-10T04:07:44;10.67;;;8.50;;
18338;SDS011;9295;44.484;11.240;2023-05-10T04:10:14;9.43;;;7.90;;
18338;SDS011;9295;44.484;11.240;2023-05-10T04:12:44;17.73;;;9.70;;
18338;SDS011;9295;44.484;11.240;2023-05-10T04:15:13;17.90;;;8.93;;
18338;SDS011;9295;44.484;11.240;2023-05-10T04:17:41;12.73;;;8.60;;
18338;SDS011;9295;44.484;11.240;2023-05-10T04:20:10;11.13;;;8.43;;
18338;SDS011;9295;44.484;11.240;2023-05-10T04:22:40;12.77;;;8.50;;
18338;SDS011;9295;44.484;11.240;2023-05-10T04:25:09;12.17;;;8.10;;
18338;SDS011;9295;44.484;11.240;2023-05-10T04:27:37;10.93;;;8.00;;
18338;SDS011;9295;44.484;11.240;2023-05-10T04:30:06;9.80;;;7.87;;
18338;SDS011;9295;44.484;11.240;2023-05-10T04:32:35;9.73;;;7.67;;
18338;SDS011;9295;44.484;11.240;2023-05-10T04:35:04;9.97;;;7.87;;
18338;SDS011;9295;44.484;11.240;2023-05-10T04:37:32;10.60;;;7.57;;
18338;SDS011;9295;44.484;11.240;2023-05-10T04:40:02;14.33;;;8.53;;
18338;SDS011;9295;44.484;11.240;2023-05-10T04:42:32;10.00;;;8.53;;
18338;SDS011;9295;44.484;11.240;2023-05-10T04:45:00;11.07;;;8.30;;
18338;SDS011;9295;44.484;11.240;2023-05-10T04:47:28;9.23;;;7.97;;
18338;SDS011;9295;44.484;11.240;2023-05-10T04:49:57;9.83;;;7.93;;
18338;SDS011;9295;44.484;11.240;2023-05-10T04:52:25;10.80;;;7.87;;
18338;SDS011;9295;44.484;11.240;2023-05-10T04:54:54;13.67;;;7.77;;
18338;SDS011;9295;44.484;11.240;2023-05-10T04:57:23;9.93;;;7.40;;
18338;SDS011;9295;44.484;11.240;2023-05-10T04:59:52;8.70;;;7.80;;
18338;SDS011;9295;44.484;11.240;2023-05-10T05:02:20;10.80;;;7.90;;
18338;SDS011;9295;44.484;11.240;2023-05-10T05:04:50;11.90;;;7.80;;
18338;SDS011;9295;44.484;11.240;2023-05-10T05:07:18;10.10;;;8.13;;
18338;SDS011;9295;44.484;11.240;2023-05-10T05:09:46;11.30;;;7.50;;
18338;SDS011;9295;44.484;11.240;2023-05-10T05:12:15;8.70;;;7.43;;
18338;SDS011;9295;44.484;11.240;2023-05-10T05:14:44;13.03;;;7.67;;
18338;SDS011;9295;44.484;11.240;2023-05-10T05:17:13;11.00;;;8.00;;
18338;SDS011;9295;44.484;11.240;2023-05-10T05:19:41;15.63;;;8.00;;
18338;SDS011;9295;44.484;11.240;2023-05-10T05:22:09;8.83;;;7.50;;
18338;SDS011;9295;44.484;11.240;2023-05-10T05:24:38;9.00;;;7.70;;
18338;SDS011;9295;44.484;11.240;2023-05-10T05:27:06;11.70;;;7.50;;
18338;SDS011;9295;44.484;11.240;2023-05-10T05:29:34;13.47;;;8.20;;
18338;SDS011;9295;44.484;11.240;2023-05-10T05:32:04;11.00;;;7.00;;
18338;SDS011;9295;44.484;11.240;2023-05-10T05:34:35;9.00;;;7.80;;
18338;SDS011;9295;44.484;11.240;2023-05-10T05:37:03;12.53;;;8.70;;
18338;SDS011;9295;44.484;11.240;2023-05-10T05:39:31;11.33;;;7.93;;
18338;SDS011;9295;44.484;11.240;2023-05-10T05:42:00;9.40;;;7.40;;
18338;SDS011;9295;44.484;11.240;2023-05-10T05:44:28;9.30;;;7.17;;
18338;SDS011;9295;44.484;11.240;2023-05-10T05:46:56;10.80;;;6.87;;
18338;SDS011;9295;44.484;11.240;2023-05-10T05:49:26;11.33;;;7.67;;
18338;SDS011;9295;44.484;11.240;2023-05-10T05:51:58;9.03;;;7.20;;
18338;SDS011;9295;44.484;11.240;2023-05-10T05:54:26;7.83;;;7.03;;
18338;SDS011;9295;44.484;11.240;2023-05-10T05:56:55;8.97;;;7.17;;
18338;SDS011;9295;44.484;11.240;2023-05-10T05:59:26;8.70;;;7.10;;
18338;SDS011;9295;44.484;11.240;2023-05-10T06:01:55;10.43;;;7.30;;
18338;SDS011;9295;44.484;11.240;2023-05-10T06:04:23;8.10;;;7.20;;
18338;SDS011;9295;44.484;11.240;2023-05-10T06:06:53;10.87;;;6.83;;
18338;SDS011;9295;44.484;11.240;2023-05-10T06:09:22;8.67;;;6.90;;
18338;SDS011;9295;44.484;11.240;2023-05-10T06:11:51;10.90;;;7.37;;
18338;SDS011;9295;44.484;11.240;2023-05-10T06:14:20;11.00;;;8.07;;
18338;SDS011;9295;44.484;11.240;2023-05-10T06:16:48;10.50;;;7.63;;
18338;SDS011;9295;44.484;11.240;2023-05-10T06:19:20;14.10;;;7.97;;
18338;SDS011;9295;44.484;11.240;2023-05-10T06:21:52;10.30;;;7.27;;
18338;SDS011;9295;44.484;11.240;2023-05-10T06:24:20;12.03;;;7.60;;
18338;SDS011;9295;44.484;11.240;2023-05-10T06:26:48;9.83;;;7.77;;
18338;SDS011;9295;44.484;11.240;2023-05-10T06:29:17;12.63;;;6.80;;
18338;SDS011;9295;44.484;11.240;2023-05-10T06:31:45;8.33;;;7.30;;
18338;SDS011;9295;44.484;11.240;2023-05-10T06:34:14;8.83;;;7.50;;
18338;SDS011;9295;44.484;11.240;2023-05-10T06:36:42;15.33;;;8.40;;
18338;SDS011;9295;44.484;11.240;2023-05-10T06:39:12;12.93;;;7.30;;
18338;SDS011;9295;44.484;11.240;2023-05-10T06:41:40;11.00;;;7.60;;
18338;SDS011;9295;44.484;11.240;2023-05-10T06:44:09;8.90;;;7.10;;
18338;SDS011;9295;44.484;11.240;2023-05-10T06:46:37;12.20;;;7.53;;
18338;SDS011;9295;44.484;11.240;2023-05-10T06:49:06;9.03;;;8.00;;
18338;SDS011;9295;44.484;11.240;2023-05-10T06:51:34;9.27;;;7.60;;
18338;SDS011;9295;44.484;11.240;2023-05-10T06:54:02;13.40;;;7.80;;
18338;SDS011;9295;44.484;11.240;2023-05-10T06:56:32;7.90;;;7.10;;
18338;SDS011;9295;44.484;11.240;2023-05-10T06:59:00;8.97;;;8.07;;
18338;SDS011;9295;44.484;11.240;2023-05-10T07:01:29;8.83;;;7.50;;
18338;SDS011;9295;44.484;11.240;2023-05-10T07:03:57;8.30;;;7.40;;
18338;SDS011;9295;44.484;11.240;2023-05-10T07:06:26;7.87;;;6.77;;
18338;SDS011;9295;44.484;11.240;2023-05-10T07:08:59;9.10;;;7.70;;
18338;SDS011;9295;44.484;11.240;2023-05-10T07:11:28;9.40;;;7.70;;
18338;SDS011;9295;44.484;11.240;2023-05-10T07:13:57;8.60;;;7.20;;
18338;SDS011;9295;44.484;11.240;2023-05-10T07:16:26;9.00;;;7.63;;
18338;SDS011;9295;44.484;11.240;2023-05-10T07:18:54;8.50;;;7.13;;
18338;SDS011;9295;44.484;11.240;2023-05-10T07:21:23;12.53;;;8.07;;
18338;SDS011;9295;44.484;11.240;2023-05-10T07:23:51;19.20;;;8.60;;
18338;SDS011;9295;44.484;11.240;2023-05-10T07:26:20;8.87;;;7.00;;
18338;SDS011;9295;44.484;11.240;2023-05-10T07:28:48;11.80;;;7.77;;
18338;SDS011;9295;44.484;11.240;2023-05-10T07:31:18;7.17;;;6.47;;
18338;SDS011;9295;44.484;11.240;2023-05-10T07:33:46;11.47;;;6.90;;
18338;SDS011;9295;44.484;11.240;2023-05-10T07:36:15;9.87;;;6.40;;
18338;SDS011;9295;44.484;11.240;2023-05-10T07:38:43;9.07;;;6.80;;
18338;SDS011;9295;44.484;11.240;2023-05-10T07:41:12;8.90;;;6.87;;
18338;SDS011;9295;44.484;11.240;2023-05-10T07:43:40;7.30;;;6.30;;
18338;SDS011;9295;44.484;11.240;2023-05-10T07:46:09;15.07;;;7.77;;
18338;SDS011;9295;44.484;11.240;2023-05-10T07:48:39;11.73;;;6.97;;
18338;SDS011;9295;44.484;11.240;2023-05-10T07:51:08;11.47;;;6.17;;
18338;SDS011;9295;44.484;11.240;2023-05-10T07:53:37;12.43;;;6.83;;
18338;SDS011;9295;44.484;11.240;2023-05-10T07:56:19;6.40;;;5.80;;
18338;SDS011;9295;44.484;11.240;2023-05-10T07:58:49;6.63;;;5.77;;
18338;SDS011;9295;44.484;11.240;2023-05-10T08:01:18;8.50;;;6.47;;
18338;SDS011;9295;44.484;11.240;2023-05-10T08:03:47;7.40;;;6.23;;
18338;SDS011;9295;44.484;11.240;2023-05-10T08:06:17;7.00;;;6.20;;
18338;SDS011;9295;44.484;11.240;2023-05-10T08:08:46;7.90;;;6.30;;
18338;SDS011;9295;44.484;11.240;2023-05-10T08:11:17;14.13;;;7.30;;
18338;SDS011;9295;44.484;11.240;2023-05-10T08:13:46;8.20;;;5.47;;
18338;SDS011;9295;44.484;11.240;2023-05-10T08:16:14;9.97;;;6.53;;
18338;SDS011;9295;44.484;11.240;2023-05-10T08:18:43;7.83;;;6.70;;
18338;SDS011;9295;44.484;11.240;2023-05-10T08:21:15;9.77;;;6.50;;
18338;SDS011;9295;44.484;11.240;2023-05-10T08:23:43;5.93;;;5.30;;
18338;SDS011;9295;44.484;11.240;2023-05-10T08:26:11;7.20;;;5.93;;
18338;SDS011;9295;44.484;11.240;2023-05-10T08:28:40;9.23;;;6.40;;
18338;SDS011;9295;44.484;11.240;2023-05-10T08:31:08;9.40;;;5.97;;
18338;SDS011;9295;44.484;11.240;2023-05-10T08:33:36;8.73;;;6.07;;
18338;SDS011;9295;44.484;11.240;2023-05-10T08:36:06;6.60;;;5.20;;
18338;SDS011;9295;44.484;11.240;2023-05-10T08:38:36;9.63;;;5.80;;
18338;SDS011;9295;44.484;11.240;2023-05-10T08:41:05;9.07;;;5.50;;
18338;SDS011;9295;44.484;11.240;2023-05-10T08:43:34;9.10;;;6.27;;
18338;SDS011;9295;44.484;11.240;2023-05-10T08:46:04;8.63;;;6.10;;
18338;SDS011;9295;44.484;11.240;2023-05-10T08:48:35;7.43;;;6.47;;
18338;SDS011;9295;44.484;11.240;2023-05-10T08:51:04;7.33;;;5.67;;
18338;SDS011;9295;44.484;11.240;2023-05-10T08:53:36;9.43;;;5.40;;
18338;SDS011;9295;44.484;11.240;2023-05-10T08:56:05;6.00;;;5.23;;
18338;SDS011;9295;44.484;11.240;2023-05-10T08:58:34;11.40;;;5.83;;
18338;SDS011;9295;44.484;11.240;2023-05-10T09:01:03;7.50;;;5.73;;
18338;SDS011;9295;44.484;11.240;2023-05-10T09:03:32;7.87;;;5.87;;
18338;SDS011;9295;44.484;11.240;2023-05-10T09:06:01;8.20;;;6.30;;
18338;SDS011;9295;44.484;11.240;2023-05-10T09:08:29;6.87;;;6.17;;
18338;SDS011;9295;44.484;11.240;2023-05-10T09:10:59;9.73;;;7.50;;
18338;SDS011;9295;44.484;11.240;2023-05-10T09:13:29;7.53;;;6.63;;
18338;SDS011;9295;44.484;11.240;2023-05-10T09:15:58;9.90;;;7.13;;
18338;SDS011;9295;44.484;11.240;2023-05-10T09:18:45;7.23;;;6.53;;
18338;SDS011;9295;44.484;11.240;2023-05-10T09:21:14;8.50;;;7.10;;
18338;SDS011;9295;44.484;11.240;2023-05-10T09:23:42;9.40;;;7.27;;
18338;SDS011;9295;44.484;11.240;2023-05-10T09:26:15;7.60;;;6.23;;
18338;SDS011;9295;44.484;11.240;2023-05-10T09:28:50;8.63;;;7.20;;
18338;SDS011;9295;44.484;11.240;2023-05-10T09:31:19;8.83;;;6.43;;
18338;SDS011;9295;44.484;11.240;2023-05-10T09:33:48;7.57;;;6.57;;
18338;SDS011;9295;44.484;11.240;2023-05-10T09:36:17;9.07;;;6.30;;
18338;SDS011;9295;44.484;11.240;2023-05-10T09:38:46;10.77;;;6.30;;
18338;SDS011;9295;44.484;11.240;2023-05-10T09:41:17;12.33;;;6.20;;
18338;SDS011;9295;44.484;11.240;2023-05-10T09:43:46;6.20;;;5.60;;
18338;SDS011;9295;44.484;11.240;2023-05-10T09:46:15;12.93;;;6.90;;
18338;SDS011;9295;44.484;11.240;2023-05-10T09:48:44;8.90;;;7.57;;
18338;SDS011;9295;44.484;11.240;2023-05-10T09:51:20;8.40;;;6.33;;
18338;SDS011;9295;44.484;11.240;2023-05-10T09:53:49;9.30;;;6.80;;
18338;SDS011;9295;44.484;11.240;2023-05-10T09:56:38;10.10;;;7.30;;
18338;SDS011;9295;44.484;11.240;2023-05-10T09:59:09;10.00;;;7.13;;
18338;SDS011;9295;44.484;11.240;2023-05-10T10:01:38;10.23;;;7.57;;
18338;SDS011;9295;44.484;11.240;2023-05-10T10:04:09;10.83;;;7.77;;
18338;SDS011;9295;44.484;11.240;2023-05-10T10:06:37;9.50;;;7.57;;
18338;SDS011;9295;44.484;11.240;2023-05-10T10:09:07;9.53;;;7.00;;
18338;SDS011;9295;44.484;11.240;2023-05-10T10:11:36;9.47;;;7.17;;
18338;SDS011;9295;44.484;11.240;2023-05-10T10:14:07;9.90;;;6.90;;
18338;SDS011;9295;44.484;11.240;2023-05-10T10:16:36;7.63;;;6.07;;
18338;SDS011;9295;44.484;11.240;2023-05-10T10:19:21;9.47;;;6.30;;
18338;SDS011;9295;44.484;11.240;2023-05-10T10:21:50;7.13;;;6.27;;
18338;SDS011;9295;44.484;11.240;2023-05-10T10:24:18;8.27;;;6.97;;
18338;SDS011;9295;44.484;11.240;2023-05-10T10:26:48;10.73;;;7.80;;
18338;SDS011;9295;44.484;11.240;2023-05-10T10:29:21;10.80;;;6.50;;
18338;SDS011;9295;44.484;11.240;2023-05-10T10:32:01;7.90;;;6.20;;
18338;SDS011;9295;44.484;11.240;2023-05-10T10:34:39;10.53;;;6.50;;
18338;SDS011;9295;44.484;11.240;2023-05-10T10:37:08;10.43;;;7.87;;
18338;SDS011;9295;44.484;11.240;2023-05-10T10:39:36;10.93;;;7.83;;
18338;SDS011;9295;44.484;11.240;2023-05-10T10:42:06;11.17;;;7.13;;
18338;SDS011;9295;44.484;11.240;2023-05-10T10:44:38;8.10;;;6.77;;
18338;SDS011;9295;44.484;11.240;2023-05-10T10:47:20;7.60;;;6.20;;
18338;SDS011;9295;44.484;11.240;2023-05-10T10:50:03;9.53;;;6.93;;
18338;SDS011;9295;44.484;11.240;2023-05-10T10:52:33;8.03;;;6.50;;
18338;SDS011;9295;44.484;11.240;2023-05-10T10:55:02;9.07;;;6.70;;
18338;SDS011;9295;44.484;11.240;2023-05-10T10:57:43;12.30;;;6.90;;
18338;SDS011;9295;44.484;11.240;2023-05-10T11:00:22;8.07;;;6.03;;
18338;SDS011;9295;44.484;11.240;2023-05-10T11:02:53;7.50;;;6.00;;
18338;SDS011;9295;44.484;11.240;2023-05-10T11:08:15;7.40;;;5.57;;
18338;SDS011;9295;44.484;11.240;2023-05-10T11:10:49;6.57;;;5.53;;
18338;SDS011;9295;44.484;11.240;2023-05-10T11:13:31;7.70;;;5.67;;
18338;SDS011;9295;44.484;11.240;2023-05-10T11:16:11;7.90;;;6.13;;
18338;SDS011;9295;44.484;11.240;2023-05-10T11:18:47;8.17;;;6.53;;
18338;SDS011;9295;44.484;11.240;2023-05-10T11:21:20;9.37;;;7.00;;
18338;SDS011;9295;44.484;11.240;2023-05-10T11:23:52;9.80;;;7.03;;
18338;SDS011;9295;44.484;11.240;2023-05-10T11:26:22;7.97;;;6.83;;
18338;SDS011;9295;44.484;11.240;2023-05-10T11:28:54;7.40;;;6.17;;
18338;SDS011;9295;44.484;11.240;2023-05-10T11:31:23;8.93;;;5.93;;
18338;SDS011;9295;44.484;11.240;2023-05-10T11:33:53;7.40;;;6.70;;
18338;SDS011;9295;44.484;11.240;2023-05-10T11:36:24;8.87;;;6.73;;
18338;SDS011;9295;44.484;11.240;2023-05-10T11:38:54;6.53;;;5.73;;
18338;SDS011;9295;44.484;11.240;2023-05-10T11:41:24;6.80;;;5.93;;
18338;SDS011;9295;44.484;11.240;2023-05-10T11:43:55;7.50;;;5.77;;
18338;SDS011;9295;44.484;11.240;2023-05-10T11:46:26;6.37;;;5.77;;
18338;SDS011;9295;44.484;11.240;2023-05-10T11:48:55;9.07;;;5.90;;
18338;SDS011;9295;44.484;11.240;2023-05-10T11:51:28;5.87;;;5.27;;
18338;SDS011;9295;44.484;11.240;2023-05-10T11:53:56;6.17;;;4.87;;
18338;SDS011;9295;44.484;11.240;2023-05-10T11:56:25;4.90;;;4.40;;
18338;SDS011;9295;44.484;11.240;2023-05-10T11:58:54;10.23;;;5.10;;
18338;SDS011;9295;44.484;11.240;2023-05-10T12:01:27;7.40;;;4.20;;
18338;SDS011;9295;44.484;11.240;2023-05-10T12:03:56;9.03;;;4.20;;
18338;SDS011;9295;44.484;11.240;2023-05-10T12:06:27;7.00;;;4.77;;
18338;SDS011;9295;44.484;11.240;2023-05-10T12:08:58;5.70;;;4.20;;
18338;SDS011;9295;44.484;11.240;2023-05-10T12:11:28;4.90;;;4.03;;
18338;SDS011;9295;44.484;11.240;2023-05-10T12:13:58;4.97;;;3.80;;
18338;SDS011;9295;44.484;11.240;2023-05-10T12:16:28;4.43;;;3.67;;
18338;SDS011;9295;44.484;11.240;2023-05-10T12:18:58;7.07;;;3.83;;
18338;SDS011;9295;44.484;11.240;2023-05-10T12:21:28;4.30;;;3.30;;
18338;SDS011;9295;44.484;11.240;2023-05-10T12:23:59;3.90;;;3.47;;
18338;SDS011;9295;44.484;11.240;2023-05-10T12:26:29;3.70;;;3.20;;
18338;SDS011;9295;44.484;11.240;2023-05-10T12:29:12;4.60;;;3.10;;
18338;SDS011;9295;44.484;11.240;2023-05-10T12:31:48;3.40;;;2.90;;
18338;SDS011;9295;44.484;11.240;2023-05-10T12:34:30;4.03;;;2.97;;
18338;SDS011;9295;44.484;11.240;2023-05-10T12:36:59;3.47;;;2.40;;
18338;SDS011;9295;44.484;11.240;2023-05-10T12:39:37;3.17;;;2.67;;
18338;SDS011;9295;44.484;11.240;2023-05-10T12:42:06;4.30;;;3.13;;
18338;SDS011;9295;44.484;11.240;2023-05-10T12:44:36;4.13;;;3.33;;
18338;SDS011;9295;44.484;11.240;2023-05-10T12:47:04;5.70;;;2.93;;
18338;SDS011;9295;44.484;11.240;2023-05-10T12:49:33;4.40;;;3.13;;
18338;SDS011;9295;44.484;11.240;2023-05-10T12:52:01;4.47;;;3.30;;
18338;SDS011;9295;44.484;11.240;2023-05-10T12:54:30;4.67;;;3.30;;
18338;SDS011;9295;44.484;11.240;2023-05-10T12:56:58;3.93;;;3.00;;
18338;SDS011;9295;44.484;11.240;2023-05-10T12:59:26;6.53;;;3.50;;
18338;SDS011;9295;44.484;11.240;2023-05-10T13:01:56;4.43;;;3.53;;
18338;SDS011;9295;44.484;11.240;2023-05-10T13:04:25;4.37;;;3.10;;
18338;SDS011;9295;44.484;11.240;2023-05-10T13:06:54;4.93;;;3.90;;
18338;SDS011;9295;44.484;11.240;2023-05-10T13:09:25;3.73;;;2.60;;
18338;SDS011;9295;44.484;11.240;2023-05-10T13:11:55;3.70;;;2.90;;
18338;SDS011;9295;44.484;11.240;2023-05-10T13:14:24;3.40;;;3.10;;
18338;SDS011;9295;44.484;11.240;2023-05-10T13:16:53;3.50;;;2.90;;
18338;SDS011;9295;44.484;11.240;2023-05-10T13:19:23;4.07;;;3.40;;
18338;SDS011;9295;44.484;11.240;2023-05-10T13:21:51;5.07;;;3.60;;
18338;SDS011;9295;44.484;11.240;2023-05-10T13:24:20;4.97;;;3.53;;
18338;SDS011;9295;44.484;11.240;2023-05-10T13:26:48;4.50;;;3.23;;
18338;SDS011;9295;44.484;11.240;2023-05-10T13:29:17;8.27;;;3.77;;
18338;SDS011;9295;44.484;11.240;2023-05-10T13:31:45;5.00;;;3.27;;
18338;SDS011;9295;44.484;11.240;2023-05-10T13:34:14;3.77;;;3.37;;
18338;SDS011;9295;44.484;11.240;2023-05-10T13:36:43;4.50;;;3.20;;
18338;SDS011;9295;44.484;11.240;2023-05-10T13:39:12;3.90;;;3.27;;
18338;SDS011;9295;44.484;11.240;2023-05-10T13:41:40;4.60;;;3.40;;
18338;SDS011;9295;44.484;11.240;2023-05-10T13:44:08;4.43;;;3.37;;
18338;SDS011;9295;44.484;11.240;2023-05-10T13:46:37;3.87;;;3.47;;
18338;SDS011;9295;44.484;11.240;2023-05-10T13:49:06;3.93;;;3.00;;
18338;SDS011;9295;44.484;11.240;2023-05-10T13:51:34;4.60;;;3.20;;
18338;SDS011;9295;44.484;11.240;2023-05-10T13:54:04;6.47;;;3.27;;
18338;SDS011;9295;44.484;11.240;2023-05-10T13:56:33;4.33;;;2.80;;
18338;SDS011;9295;44.484;11.240;2023-05-10T13:59:01;4.00;;;3.20;;
18338;SDS011;9295;44.484;11.240;2023-05-10T14:01:29;6.53;;;2.90;;
18338;SDS011;9295;44.484;11.240;2023-05-10T14:03:58;3.80;;;2.57;;
18338;SDS011;9295;44.484;11.240;2023-05-10T14:06:26;10.47;;;3.20;;
18338;SDS011;9295;44.484;11.240;2023-05-10T14:08:55;4.67;;;3.03;;
18338;SDS011;9295;44.484;11.240;2023-05-10T14:11:24;3.10;;;2.57;;
18338;SDS011;9295;44.484;11.240;2023-05-10T14:13:53;4.27;;;2.73;;
18338;SDS011;9295;44.484;11.240;2023-05-10T14:16:21;3.90;;;3.00;;
18338;SDS011;9295;44.484;11.240;2023-05-10T14:18:50;5.30;;;4.00;;
18338;SDS011;9295;44.484;11.240;2023-05-10T14:21:18;5.17;;;3.80;;
18338;SDS011;9295;44.484;11.240;2023-05-10T14:23:47;7.17;;;3.77;;
18338;SDS011;9295;44.484;11.240;2023-05-10T14:26:15;4.97;;;4.47;;
18338;SDS011;9295;44.484;11.240;2023-05-10T14:28:45;7.90;;;5.30;;
18338;SDS011;9295;44.484;11.240;2023-05-10T14:31:14;7.37;;;6.10;;
18338;SDS011;9295;44.484;11.240;2023-05-10T14:33:43;7.37;;;6.67;;
18338;SDS011;9295;44.484;11.240;2023-05-10T14:36:11;10.27;;;6.93;;
18338;SDS011;9295;44.484;11.240;2023-05-10T14:38:40;7.00;;;6.30;;
18338;SDS011;9295;44.484;11.240;2023-05-10T14:41:08;7.97;;;6.80;;
18338;SDS011;9295;44.484;11.240;2023-05-10T14:43:40;8.90;;;7.37;;
18338;SDS011;9295;44.484;11.240;2023-05-10T14:46:10;8.43;;;7.13;;
18338;SDS011;9295;44.484;11.240;2023-05-10T14:48:39;8.47;;;7.63;;
18338;SDS011;9295;44.484;11.240;2023-05-10T14:51:07;11.17;;;8.53;;
18338;SDS011;9295;44.484;11.240;2023-05-10T14:53:36;9.90;;;8.33;;
18338;SDS011;9295;44.484;11.240;2023-05-10T14:56:04;12.77;;;8.93;;
18338;SDS011;9295;44.484;11.240;2023-05-10T14:58:33;9.67;;;8.67;;
18338;SDS011;9295;44.484;11.240;2023-05-10T15:01:01;12.23;;;9.97;;